Time;durP1;ratioP1;P1;durP2;ratioP2;P2;SDS_P1;SDS_P2;PMS_P1;PMS_P2;Temp;Humidity;BMP_temperature;BMP_pressure;BME280_temperature;BME280_humidity;BME280_pressure;Samples;Min_cycle;Max_cycle;Signal;HPM_P1;HPM_P2
2022/07/28 00:01:20;;;;;;;4.00;0.98;;;;;;;13.94;83.81;101113.56;5199481;28;20029;-74
2022/07/28 00:03:50;;;;;;;2.92;0.95;;;;;;;13.84;83.93;101115.72;5200126;28;20395;-74
2022/07/28 00:06:20;;;;;;;3.42;1.00;;;;;;;13.82;84.88;101111.44;5199296;28;20049;-74
2022/07/28 00:08:51;;;;;;;3.97;1.23;;;;;;;13.83;84.69;101105.25;5199762;28;20607;-74
2022/07/28 00:11:21;;;;;;;3.58;1.02;;;;;;;13.59;85.04;101112.34;5200169;28;20014;-74
2022/07/28 00:13:52;;;;;;;3.67;1.23;;;;;;;13.40;86.61;101118.38;5200151;28;20299;-74
2022/07/28 00:16:22;;;;;;;3.28;0.95;;;;;;;13.41;87.34;101109.59;5199481;28;20429;-74
2022/07/28 00:18:53;;;;;;;2.60;0.80;;;;;;;13.37;86.69;101108.00;5199287;28;20025;-75
2022/07/28 00:21:23;;;;;;;3.97;1.00;;;;;;;12.46;91.18;101114.00;5201546;28;20100;-74
2022/07/28 00:23:53;;;;;;;3.83;1.33;;;;;;;12.23;91.89;101114.78;5194574;28;20140;-74
2022/07/28 00:26:23;;;;;;;7.13;1.30;;;;;;;11.84;93.67;101112.59;5203361;28;20468;-74
2022/07/28 00:28:54;;;;;;;3.53;1.08;;;;;;;12.12;91.96;101110.81;5203333;28;20029;-74
2022/07/28 00:31:24;;;;;;;3.42;1.00;;;;;;;11.87;92.61;101107.25;5203264;28;20095;-74
2022/07/28 00:33:54;;;;;;;2.65;1.00;;;;;;;11.88;92.39;101109.84;5204171;28;20552;-74
2022/07/28 00:36:25;;;;;;;4.50;1.38;;;;;;;12.29;91.63;101111.94;5203513;28;20477;-74
2022/07/28 00:38:55;;;;;;;4.00;1.20;;;;;;;12.47;91.52;101106.06;5203395;28;20037;-74
2022/07/28 00:41:26;;;;;;;3.75;1.15;;;;;;;12.55;90.25;101106.66;5204352;28;20083;-74
2022/07/28 00:43:56;;;;;;;6.70;1.30;;;;;;;12.57;89.26;101107.47;5205949;28;20038;-74
2022/07/28 00:46:26;;;;;;;4.57;1.33;;;;;;;12.35;92.26;101111.75;5204853;28;20021;-74
2022/07/28 00:49:03;;;;;;;3.45;0.95;;;;;;;12.68;90.82;101114.94;5203386;28;20175;-75
2022/07/28 00:51:34;;;;;;;3.47;1.05;;;;;;;12.90;86.86;101101.84;5195368;28;20056;-74
2022/07/28 00:54:05;;;;;;;5.22;1.30;;;;;;;12.79;85.05;101110.19;5202214;28;20029;-74
2022/07/28 00:56:36;;;;;;;3.20;0.90;;;;;;;12.46;85.43;101114.84;5202885;28;20564;-73
2022/07/28 00:59:06;;;;;;;4.82;1.17;;;;;;;11.62;87.76;101111.56;5201683;28;20084;-75
2022/07/28 01:01:37;;;;;;;2.47;0.93;;;;;;;11.60;89.70;101116.84;5202138;28;20717;-74
2022/07/28 01:04:07;;;;;;;4.55;1.27;;;;;;;11.80;89.15;101122.31;5203052;28;20031;-74
2022/07/28 01:06:40;;;;;;;3.85;0.90;;;;;;;11.58;90.52;101125.66;5202606;28;20036;-74
2022/07/28 01:09:30;;;;;;;10.57;1.33;;;;;;;11.29;91.12;101129.09;5203062;28;20025;-74
2022/07/28 01:12:12;;;;;;;5.45;1.20;;;;;;;11.02;95.44;101123.81;5201609;28;20028;-74
2022/07/28 01:14:51;;;;;;;5.78;1.20;;;;;;;11.19;93.48;101127.69;5203302;28;20021;-74
2022/07/28 01:17:42;;;;;;;5.75;1.23;;;;;;;11.15;94.50;101123.44;5199374;28;20014;-74
2022/07/28 01:20:37;;;;;;;4.63;0.85;;;;;;;10.86;95.62;101129.53;5203214;28;20036;-74
2022/07/28 01:23:32;;;;;;;6.97;1.33;;;;;;;10.70;98.29;101130.88;5202522;28;20037;-74
2022/07/28 01:26:27;;;;;;;4.82;1.23;;;;;;;10.76;100.00;101122.84;5200995;28;20029;-74
2022/07/28 01:29:26;;;;;;;5.13;1.35;;;;;;;10.84;98.07;101128.72;5199768;28;20115;-75
2022/07/28 01:32:04;;;;;;;4.22;1.27;;;;;;;11.07;96.29;101122.78;5200272;28;20567;-74
2022/07/28 01:34:54;;;;;;;4.22;1.20;;;;;;;11.31;93.57;101116.00;5202223;28;20036;-74
2022/07/28 01:37:28;;;;;;;5.78;1.30;;;;;;;11.21;94.50;101115.41;5199063;28;20034;-75
2022/07/28 01:40:04;;;;;;;6.40;1.15;;;;;;;10.79;96.64;101125.38;5202794;28;20096;-74
2022/07/28 01:42:38;;;;;;;4.30;1.25;;;;;;;10.76;97.58;101123.72;5202565;28;20021;-74
2022/07/28 01:45:11;;;;;;;5.80;1.35;;;;;;;10.58;99.26;101120.72;5202923;28;20029;-74
2022/07/28 01:47:46;;;;;;;4.15;1.20;;;;;;;10.83;99.10;101122.63;5201501;28;20379;-75
2022/07/28 01:50:19;;;;;;;5.78;1.35;;;;;;;11.05;94.64;101113.25;5198630;28;20129;-74
2022/07/28 01:52:51;;;;;;;6.03;1.50;;;;;;;11.20;94.92;101118.94;5202313;28;20057;-75
2022/07/28 01:55:23;;;;;;;4.85;1.10;;;;;;;11.50;92.12;101106.69;5202336;28;20082;-74
2022/07/28 01:57:56;;;;;;;2.05;0.93;;;;;;;11.65;91.11;101111.47;5201270;28;20498;-74
2022/07/28 02:00:27;;;;;;;3.25;1.27;;;;;;;11.52;92.08;101107.47;5201922;28;20029;-74
2022/07/28 02:03:02;;;;;;;2.90;1.23;;;;;;;11.40;91.88;101111.34;5202314;28;20029;-74
2022/07/28 02:05:36;;;;;;;5.65;1.48;;;;;;;11.40;92.88;101106.09;5202157;28;20087;-74
2022/07/28 02:08:08;;;;;;;4.70;1.17;;;;;;;10.97;94.27;101096.06;5201583;28;20568;-72
2022/07/28 02:10:41;;;;;;;4.72;1.27;;;;;;;11.42;92.89;101099.06;5201828;28;20026;-75
2022/07/28 02:13:12;;;;;;;3.33;1.20;;;;;;;11.17;92.98;101103.31;5202191;28;20632;-74
2022/07/28 02:15:42;;;;;;;3.88;1.40;;;;;;;11.40;91.53;101100.00;5201944;28;20095;-74
2022/07/28 02:18:13;;;;;;;4.93;1.13;;;;;;;11.19;93.18;101106.75;5201780;28;20064;-74
2022/07/28 02:20:43;;;;;;;3.42;1.05;;;;;;;11.27;93.14;101109.13;5202188;28;20101;-74
2022/07/28 02:23:14;;;;;;;4.65;1.27;;;;;;;10.89;93.77;101117.22;5201670;28;20037;-74
2022/07/28 02:25:45;;;;;;;4.25;1.42;;;;;;;10.64;96.76;101121.44;5201570;28;20024;-75
2022/07/28 02:28:20;;;;;;;3.30;1.30;;;;;;;10.57;96.98;101114.66;5197762;28;20429;-75
2022/07/28 02:31:15;;;;;;;4.35;1.30;;;;;;;10.70;94.32;101109.94;5201782;28;20026;-74
2022/07/28 02:33:47;;;;;;;3.72;1.33;;;;;;;10.29;97.14;101113.66;5200005;28;20029;-74
2022/07/28 02:36:53;;;;;;;2.65;1.20;;;;;;;10.46;97.20;101110.59;5199023;28;20032;-74
2022/07/28 02:39:42;;;;;;;5.00;1.38;;;;;;;10.55;95.68;101111.19;5179626;28;20044;-74
2022/07/28 02:42:16;;;;;;;3.45;1.30;;;;;;;10.17;96.78;101110.50;5201597;28;20029;-75
2022/07/28 02:44:56;;;;;;;7.43;1.35;;;;;;;10.09;99.67;101113.31;5197518;28;20022;-74
2022/07/28 02:47:33;;;;;;;5.50;1.63;;;;;;;10.25;100.00;101119.00;5199568;28;20051;-75
2022/07/28 02:50:06;;;;;;;5.38;1.40;;;;;;;10.33;99.45;101115.28;5201192;28;20108;-74
2022/07/28 02:52:38;;;;;;;3.83;1.50;;;;;;;10.76;94.25;101117.59;5200042;28;20554;-75
2022/07/28 02:55:13;;;;;;;5.00;1.27;;;;;;;10.69;92.51;101114.31;5201364;28;20394;-75
2022/07/28 02:57:44;;;;;;;3.30;1.30;;;;;;;10.83;91.31;101114.78;5200140;28;20029;-75
2022/07/28 03:00:15;;;;;;;2.50;1.02;;;;;;;10.57;90.61;101116.41;5200678;28;20494;-74
2022/07/28 03:02:46;;;;;;;2.45;0.95;;;;;;;9.97;92.15;101131.00;5198852;28;20041;-75
2022/07/28 03:05:17;;;;;;;1.90;1.10;;;;;;;9.64;96.87;101134.41;5201528;28;20049;-74
2022/07/28 03:07:51;;;;;;;3.78;1.20;;;;;;;9.71;97.55;101138.59;5200581;28;20017;-74
2022/07/28 03:10:27;;;;;;;3.33;1.23;;;;;;;10.08;95.62;101132.50;5200896;28;20104;-74
2022/07/28 03:12:58;;;;;;;3.67;1.23;;;;;;;10.38;92.91;101133.47;5200686;28;20048;-74
2022/07/28 03:15:29;;;;;;;1.98;1.15;;;;;;;10.42;91.99;101137.72;5200578;28;20094;-73
2022/07/28 03:18:01;;;;;;;4.10;1.10;;;;;;;10.21;95.75;101133.03;5200602;28;20536;-74
2022/07/28 03:20:32;;;;;;;8.40;3.17;;;;;;;10.52;93.45;101147.03;5201072;28;20031;-74
2022/07/28 03:23:03;;;;;;;20.55;9.75;;;;;;;10.54;91.87;101145.25;5200980;28;20104;-75
2022/07/28 03:25:43;;;;;;;4.72;1.73;;;;;;;9.56;98.60;101154.59;5200202;28;20095;-74
2022/07/28 03:28:18;;;;;;;3.75;1.33;;;;;;;9.70;100.00;101148.19;5199837;28;20109;-74
2022/07/28 03:31:00;;;;;;;5.00;1.67;;;;;;;10.26;96.05;101144.22;5199425;28;20033;-74
2022/07/28 03:33:31;;;;;;;3.13;1.13;;;;;;;10.20;95.28;101141.78;5199395;28;20117;-74
2022/07/28 03:36:08;;;;;;;4.05;1.38;;;;;;;10.00;97.68;101151.81;5200375;28;20025;-74
2022/07/28 03:38:44;;;;;;;3.13;1.60;;;;;;;10.20;95.90;101150.44;5200248;28;20017;-74
2022/07/28 03:41:17;;;;;;;5.50;1.30;;;;;;;10.26;94.65;101146.84;5200803;28;20021;-74
2022/07/28 03:43:49;;;;;;;3.85;1.08;;;;;;;10.18;98.50;101152.25;5196878;28;20029;-74
2022/07/28 03:46:20;;;;;;;3.10;1.30;;;;;;;10.57;95.22;101146.03;5196789;28;20387;-74
2022/07/28 03:48:50;;;;;;;2.65;1.42;;;;;;;10.32;97.72;101154.53;5197954;28;20030;-74
2022/07/28 03:51:20;;;;;;;4.97;1.35;;;;;;;10.18;97.33;101156.63;5199813;28;20083;-74
2022/07/28 03:53:51;;;;;;;3.42;1.38;;;;;;;10.08;100.00;101150.78;5199609;28;20107;-74
2022/07/28 03:56:21;;;;;;;1.80;1.13;;;;;;;9.88;100.00;101152.97;5200506;28;20103;-74
2022/07/28 03:58:51;;;;;;;7.22;1.58;;;;;;;10.00;100.00;101152.66;5201254;28;20064;-74
2022/07/28 04:01:22;;;;;;;3.88;1.35;;;;;;;10.29;99.93;101146.75;5203556;28;20032;-74
2022/07/28 04:03:52;;;;;;;4.10;1.30;;;;;;;10.26;99.67;101145.09;5204138;28;20029;-75
2022/07/28 04:06:22;;;;;;;3.33;1.30;;;;;;;10.31;100.00;101147.59;5204149;28;20021;-74
2022/07/28 04:08:53;;;;;;;3.85;1.13;;;;;;;9.95;100.00;101146.69;5203402;28;20029;-75
2022/07/28 04:11:23;;;;;;;3.00;1.17;;;;;;;9.84;100.00;101153.06;5204612;28;20399;-74
2022/07/28 04:13:55;;;;;;;2.65;1.20;;;;;;;9.95;100.00;101146.69;5203191;28;20021;-74
2022/07/28 04:16:25;;;;;;;8.82;1.42;;;;;;;9.98;100.00;101143.16;5204118;28;20033;-74
2022/07/28 04:18:55;;;;;;;5.03;1.30;;;;;;;10.34;100.00;101139.69;5204179;28;20528;-75
2022/07/28 04:21:26;;;;;;;4.43;1.23;;;;;;;10.74;100.00;101145.56;5204361;28;20029;-74
2022/07/28 04:23:56;;;;;;;4.25;1.30;;;;;;;10.48;100.00;101142.78;5204568;28;20537;-74
2022/07/28 04:26:27;;;;;;;6.05;1.42;;;;;;;10.59;100.00;101140.72;5203687;28;20014;-73
2022/07/28 04:28:57;;;;;;;2.55;1.10;;;;;;;11.08;97.25;101144.59;5203300;28;20033;-74
2022/07/28 04:31:27;;;;;;;4.45;1.55;;;;;;;10.90;97.51;101139.88;5204228;28;20097;-74
2022/07/28 04:33:58;;;;;;;5.95;1.35;;;;;;;10.62;100.00;101153.72;5204312;28;20060;-74
2022/07/28 04:36:29;;;;;;;6.38;1.60;;;;;;;10.76;100.00;101148.97;5203770;28;20034;-74
2022/07/28 04:38:59;;;;;;;6.47;1.77;;;;;;;10.75;100.00;101149.88;5203745;28;20375;-74
2022/07/28 04:41:29;;;;;;;2.88;1.30;;;;;;;11.53;99.98;101141.47;5204069;28;20031;-75
2022/07/28 04:44:00;;;;;;;3.80;1.20;;;;;;;12.13;92.50;101146.56;5202730;28;20021;-74
2022/07/28 04:46:30;;;;;;;5.47;1.40;;;;;;;12.83;89.25;101146.72;5203338;28;20433;-75
2022/07/28 04:49:00;;;;;;;4.22;1.10;;;;;;;12.78;89.69;101151.28;5203366;28;20033;-75
2022/07/28 04:51:31;;;;;;;4.47;1.38;;;;;;;12.30;91.25;101150.34;5203719;28;20029;-75
2022/07/28 04:54:02;;;;;;;4.13;1.25;;;;;;;12.39;93.64;101154.41;5203377;28;20029;-75
2022/07/28 04:56:32;;;;;;;4.97;1.27;;;;;;;12.49;89.78;101156.66;5201512;28;20017;-74
2022/07/28 04:59:03;;;;;;;4.35;1.13;;;;;;;12.59;87.52;101155.47;5202892;28;20575;-75
2022/07/28 05:01:37;;;;;;;4.88;1.40;;;;;;;12.45;92.99;101156.84;5202206;28;20471;-75
2022/07/28 05:04:08;;;;;;;3.47;1.30;;;;;;;12.44;93.24;101158.59;5203402;28;20442;-75
2022/07/28 05:06:38;;;;;;;4.25;1.23;;;;;;;12.02;95.30;101154.78;5202796;28;20021;-74
2022/07/28 05:09:08;;;;;;;3.70;1.10;;;;;;;12.56;93.85;101163.44;5201190;28;20026;-74
2022/07/28 05:11:39;;;;;;;6.18;1.40;;;;;;;13.79;87.99;101149.22;5203517;28;20675;-75
2022/07/28 05:14:09;;;;;;;4.65;1.23;;;;;;;14.38;83.73;101147.66;5203335;28;20021;-75
2022/07/28 05:16:39;;;;;;;4.07;1.08;;;;;;;14.51;84.50;101150.63;5202915;28;20025;-75
2022/07/28 05:19:10;;;;;;;4.50;1.10;;;;;;;14.85;80.80;101147.31;5202743;28;20029;-75
2022/07/28 05:21:40;;;;;;;4.22;1.00;;;;;;;14.56;83.05;101149.50;5202275;28;20414;-74
2022/07/28 05:24:12;;;;;;;5.03;1.30;;;;;;;14.96;79.73;101145.09;5202967;28;20033;-74
2022/07/28 05:26:43;;;;;;;3.83;0.98;;;;;;;14.76;82.80;101143.41;5200710;28;20024;-74
2022/07/28 05:29:13;;;;;;;2.97;1.10;;;;;;;15.18;79.35;101135.28;5200579;28;20524;-74
2022/07/28 05:31:43;;;;;;;4.88;1.35;;;;;;;14.76;82.67;101140.78;5199782;28;20036;-73
2022/07/28 05:34:14;;;;;;;4.68;1.23;;;;;;;14.77;84.67;101145.09;5202338;28;20097;-74
2022/07/28 05:36:44;;;;;;;8.52;1.38;;;;;;;14.66;83.89;101142.06;5200511;28;20029;-74
2022/07/28 05:39:15;;;;;;;2.88;0.80;;;;;;;15.61;83.08;101148.25;5201603;28;20466;-74
2022/07/28 05:41:45;;;;;;;4.13;1.42;;;;;;;16.30;77.07;101147.47;5198920;28;20029;-74
2022/07/28 05:44:16;;;;;;;7.07;1.42;;;;;;;14.99;82.31;101149.38;5203088;28;20025;-73
2022/07/28 05:46:46;;;;;;;5.05;1.13;;;;;;;15.24;83.24;101152.59;5200583;28;20112;-74
2022/07/28 05:49:16;;;;;;;5.25;1.60;;;;;;;16.22;77.94;101149.63;5202308;28;20049;-74
2022/07/28 05:51:47;;;;;;;4.80;1.27;;;;;;;17.94;70.64;101136.84;5202707;28;20014;-75
2022/07/28 05:54:17;;;;;;;6.53;1.40;;;;;;;17.91;71.08;101148.47;5202568;28;20691;-74
2022/07/28 05:56:47;;;;;;;4.47;1.23;;;;;;;17.46;73.25;101144.88;5201576;28;20090;-74
2022/07/28 05:59:18;;;;;;;6.15;1.30;;;;;;;17.32;73.71;101150.84;5202110;28;20018;-74
2022/07/28 06:01:48;;;;;;;6.15;1.25;;;;;;;16.54;78.04;101162.09;5201703;28;20517;-75
2022/07/28 06:04:18;;;;;;;7.78;1.42;;;;;;;15.81;82.56;101161.31;5201804;28;20022;-75
2022/07/28 06:06:49;;;;;;;5.50;1.23;;;;;;;15.98;82.17;101163.13;5201666;28;20024;-74
2022/07/28 06:09:19;;;;;;;5.93;1.52;;;;;;;15.81;81.34;101163.97;5202127;28;20385;-74
2022/07/28 06:11:49;;;;;;;4.57;1.20;;;;;;;16.23;81.93;101161.03;5202297;28;20021;-74
2022/07/28 06:14:20;;;;;;;5.43;1.70;;;;;;;16.68;80.92;101164.03;5202001;28;20025;-74
2022/07/28 06:16:50;;;;;;;4.63;1.30;;;;;;;16.67;81.24;101162.31;5202084;28;20036;-72
2022/07/28 06:19:21;;;;;;;7.22;1.73;;;;;;;17.18;79.80;101165.75;5202027;28;20021;-74
2022/07/28 06:21:51;;;;;;;7.68;1.38;;;;;;;17.35;75.74;101165.75;5202067;28;20057;-74
2022/07/28 06:24:21;;;;;;;6.82;1.52;;;;;;;17.11;77.07;101174.94;5202030;28;20108;-74
2022/07/28 06:26:52;;;;;;;5.13;1.23;;;;;;;17.17;75.31;101164.03;5200949;28;20099;-74
2022/07/28 06:29:23;;;;;;;7.45;1.27;;;;;;;17.20;75.84;101170.03;5201384;28;20017;-74
2022/07/28 06:31:54;;;;;;;2.97;1.13;;;;;;;17.00;76.60;101167.56;5201680;28;20063;-74
2022/07/28 06:34:24;;;;;;;4.15;1.25;;;;;;;17.87;74.56;101169.88;5201412;28;20045;-74
2022/07/28 06:36:54;;;;;;;6.75;1.02;;;;;;;17.84;74.44;101165.59;5198896;28;20113;-74
2022/07/28 06:39:25;;;;;;;8.55;1.40;;;;;;;17.68;75.20;101166.53;5201150;28;20108;-74
2022/07/28 06:41:55;;;;;;;6.22;1.23;;;;;;;17.42;75.84;101169.75;5201569;28;20108;-75
2022/07/28 06:44:25;;;;;;;5.05;1.33;;;;;;;17.42;76.13;101164.47;5201225;28;20025;-74
2022/07/28 06:46:57;;;;;;;3.75;1.10;;;;;;;18.07;74.73;101161.66;5201923;28;20017;-75
2022/07/28 06:49:27;;;;;;;5.32;1.30;;;;;;;18.76;73.24;101161.94;5199907;28;20063;-75
2022/07/28 06:51:57;;;;;;;4.07;1.20;;;;;;;19.13;71.83;101150.81;5198373;28;20025;-75
2022/07/28 06:54:28;;;;;;;4.85;1.40;;;;;;;18.44;73.09;101164.78;5200462;28;20033;-75
2022/07/28 06:56:58;;;;;;;4.18;1.30;;;;;;;19.39;69.52;101158.06;5198980;28;20068;-75
2022/07/28 06:59:29;;;;;;;7.30;1.17;;;;;;;21.32;62.99;101155.59;5200581;28;20023;-75
2022/07/28 07:02:01;;;;;;;2.45;0.80;;;;;;;21.14;61.56;101148.06;5200568;28;20322;-74
2022/07/28 07:04:32;;;;;;;3.83;1.20;;;;;;;21.80;61.49;101153.94;5200316;28;20049;-76
2022/07/28 07:07:03;;;;;;;5.00;1.00;;;;;;;23.08;57.74;101148.53;5200571;28;20104;-75
2022/07/28 07:09:34;;;;;;;4.32;0.90;;;;;;;23.82;56.59;101149.66;5199349;28;20108;-75
2022/07/28 07:12:04;;;;;;;5.32;1.02;;;;;;;23.58;56.94;101148.94;5201101;28;20025;-75
2022/07/28 07:14:35;;;;;;;3.22;0.93;;;;;;;22.94;56.23;101146.94;5200215;28;20057;-75
2022/07/28 07:17:05;;;;;;;5.63;0.90;;;;;;;22.50;56.59;101139.78;5198557;28;20036;-75
2022/07/28 07:19:36;;;;;;;4.93;1.05;;;;;;;24.13;54.83;101135.50;5200594;28;20858;-75
2022/07/28 07:22:06;;;;;;;2.72;0.88;;;;;;;24.94;52.10;101139.25;5200513;28;20131;-75
2022/07/28 07:24:36;;;;;;;4.18;1.00;;;;;;;25.90;49.80;101125.31;5200500;28;20056;-75
2022/07/28 07:27:07;;;;;;;6.80;1.00;;;;;;;26.37;49.10;101124.50;5199034;28;20017;-75
2022/07/28 07:29:37;;;;;;;5.83;0.90;;;;;;;26.46;49.48;101123.66;5199064;28;20040;-75
2022/07/28 07:32:07;;;;;;;4.72;1.10;;;;;;;27.22;49.13;101116.34;5198813;28;20260;-75
2022/07/28 07:34:38;;;;;;;6.57;1.10;;;;;;;26.51;47.99;101126.81;5200731;28;20083;-75
2022/07/28 07:37:12;;;;;;;3.70;0.90;;;;;;;26.71;48.36;101118.56;5199022;28;20900;-75
2022/07/28 07:39:42;;;;;;;3.03;0.77;;;;;;;26.18;49.31;101124.50;5200515;28;20100;-75
2022/07/28 07:42:13;;;;;;;5.27;1.10;;;;;;;27.24;47.49;101122.44;5200748;28;20104;-75
2022/07/28 07:44:43;;;;;;;3.78;0.85;;;;;;;27.13;47.16;101115.38;5200492;28;20255;-75
2022/07/28 07:47:13;;;;;;;4.67;1.00;;;;;;;27.12;47.60;101113.69;5199878;28;20071;-75
2022/07/28 07:49:44;;;;;;;3.78;0.90;;;;;;;27.23;47.88;101112.66;5198355;28;20789;-75
2022/07/28 07:52:14;;;;;;;4.35;0.82;;;;;;;25.97;48.75;101116.59;5200230;28;20022;-75
2022/07/28 07:54:44;;;;;;;4.30;1.10;;;;;;;25.96;48.36;101111.34;5200307;28;20428;-75
2022/07/28 07:57:15;;;;;;;5.10;1.00;;;;;;;27.58;46.86;101102.91;5199408;28;20280;-75
2022/07/28 07:59:45;;;;;;;3.78;0.88;;;;;;;27.19;46.61;101108.59;5199445;28;20010;-75
2022/07/28 08:02:15;;;;;;;3.57;1.00;;;;;;;27.83;45.29;101107.59;5200077;28;20032;-75
2022/07/28 08:04:46;;;;;;;5.05;1.00;;;;;;;27.83;45.62;101102.22;5199453;28;20406;-75
2022/07/28 08:07:16;;;;;;;9.80;1.08;;;;;;;28.97;44.61;101106.63;5199464;28;20014;-75
2022/07/28 08:09:46;;;;;;;3.13;0.80;;;;;;;30.17;43.41;101101.72;5197837;28;20021;-74
2022/07/28 08:12:17;;;;;;;4.07;0.97;;;;;;;30.51;43.72;101097.88;5199714;28;20087;-75
2022/07/28 08:14:47;;;;;;;2.38;0.68;;;;;;;28.90;43.71;101100.19;5199925;28;20910;-75
2022/07/28 08:17:17;;;;;;;3.63;0.98;;;;;;;28.54;45.42;101101.25;5200039;28;20024;-74
2022/07/28 08:19:48;;;;;;;2.75;0.70;;;;;;;29.13;43.99;101104.00;5199947;28;20032;-75
2022/07/28 08:22:18;;;;;;;4.40;0.90;;;;;;;28.96;43.83;101103.09;5200316;28;20026;-75
2022/07/28 08:24:48;;;;;;;4.55;1.10;;;;;;;28.49;44.92;101106.22;5200216;28;20013;-75
2022/07/28 08:27:19;;;;;;;4.15;1.10;;;;;;;27.90;45.39;101100.59;5197754;28;20041;-75
2022/07/28 08:29:49;;;;;;;6.95;1.00;;;;;;;26.30;46.91;101113.50;5199717;28;20025;-74
2022/07/28 08:32:20;;;;;;;2.70;1.13;;;;;;;28.26;44.06;101096.94;5199759;28;20112;-75
2022/07/28 08:34:50;;;;;;;5.03;0.90;;;;;;;29.19;43.25;101104.22;5200001;28;20284;-75
2022/07/28 08:37:21;;;;;;;5.45;0.88;;;;;;;27.22;45.87;101108.28;5198195;28;20951;-76
2022/07/28 08:39:51;;;;;;;4.57;0.77;;;;;;;30.21;42.29;101097.69;5199261;28;20025;-75
2022/07/28 08:42:45;;;;;;;4.67;0.83;;;;;;;30.67;41.43;101088.94;5209277;28;20287;-75
2022/07/28 08:45:17;;;;;;;6.38;0.98;;;;;;;28.92;44.16;101090.94;5202895;28;20275;-75
2022/07/28 08:47:49;;;;;;;3.15;0.88;;;;;;;28.96;43.67;101086.94;5197420;28;20016;-75
2022/07/28 08:50:23;;;;;;;5.15;1.00;;;;;;;30.65;42.40;101085.59;5202102;28;20467;-75
2022/07/28 08:52:54;;;;;;;4.47;0.80;;;;;;;28.99;44.42;101088.44;5201825;28;20111;-75
2022/07/28 08:55:27;;;;;;;4.22;0.80;;;;;;;29.18;43.93;101086.38;5201455;28;20029;-75
2022/07/28 08:57:58;;;;;;;3.45;0.80;;;;;;;28.66;44.35;101088.38;5200415;28;20013;-75
2022/07/28 09:00:29;;;;;;;5.20;1.20;;;;;;;28.74;44.57;101091.97;5202002;28;20379;-74
2022/07/28 09:03:02;;;;;;;3.17;0.82;;;;;;;30.14;42.89;101080.50;5200986;28;20044;-75
2022/07/28 09:05:33;;;;;;;6.50;1.17;;;;;;;30.91;41.23;101073.56;5208319;28;20044;-75
2022/07/28 09:08:04;;;;;;;4.80;1.05;;;;;;;28.81;44.59;101082.25;5202640;28;20021;-75
2022/07/28 09:10:35;;;;;;;4.65;0.93;;;;;;;30.01;42.77;101072.00;5209314;28;20407;-75
2022/07/28 09:13:05;;;;;;;4.85;0.88;;;;;;;27.78;45.07;101090.22;5209508;28;20029;-75
2022/07/28 09:15:36;;;;;;;7.07;1.58;;;;;;;28.15;45.55;101086.38;5206991;28;20106;-75
2022/07/28 09:18:06;;;;;;;2.75;0.73;;;;;;;29.46;43.21;101068.13;5204061;28;20038;-72
2022/07/28 09:20:38;;;;;;;7.20;1.17;;;;;;;28.64;44.89;101087.69;5207832;28;20017;-75
2022/07/28 09:23:09;;;;;;;6.28;0.98;;;;;;;28.24;45.68;101077.41;5201030;28;20029;-75
2022/07/28 09:25:40;;;;;;;1.98;0.80;;;;;;;29.51;44.30;101073.91;5202329;28;20021;-75
2022/07/28 09:28:13;;;;;;;3.67;1.00;;;;;;;28.99;45.63;101075.84;5202080;28;20098;-73
2022/07/28 09:30:46;;;;;;;2.35;0.80;;;;;;;26.48;47.67;101082.34;5202347;28;20056;-75
2022/07/28 09:33:23;;;;;;;5.97;1.38;;;;;;;24.36;49.95;101094.34;5205507;28;20025;-75
2022/07/28 09:35:56;;;;;;;3.13;0.70;;;;;;;24.97;49.65;101094.34;5202033;28;20028;-74
2022/07/28 09:38:26;;;;;;;3.10;1.00;;;;;;;23.92;50.86;101094.53;5201772;28;20063;-75
2022/07/28 09:41:03;;;;;;;6.18;1.05;;;;;;;26.37;47.55;101081.63;5201204;28;20391;-75
2022/07/28 09:43:38;;;;;;;4.63;1.02;;;;;;;26.04;48.10;101084.72;5202596;28;20021;-75
2022/07/28 09:46:17;;;;;;;2.65;0.80;;;;;;;25.69;48.82;101084.34;5201797;28;20028;-74
2022/07/28 09:48:58;;;;;;;4.57;1.00;;;;;;;25.45;49.01;101079.38;5194428;28;20026;-75
2022/07/28 09:51:31;;;;;;;5.10;0.93;;;;;;;28.30;45.55;101066.03;5200846;28;20391;-74
2022/07/28 09:54:10;;;;;;;5.07;1.05;;;;;;;26.77;47.29;101072.41;5183745;28;20040;-74
2022/07/28 09:56:43;;;;;;;3.50;0.90;;;;;;;27.77;46.58;101067.03;5201221;28;20053;-75
2022/07/28 09:59:14;;;;;;;7.78;0.95;;;;;;;25.05;48.60;101080.31;5201270;28;20017;-75
2022/07/28 10:01:56;;;;;;;5.05;1.00;;;;;;;26.07;48.29;101073.72;5201541;28;20062;-75
2022/07/28 10:04:30;;;;;;;4.18;0.77;;;;;;;27.99;46.77;101067.41;5199137;28;20028;-75
2022/07/28 10:07:06;;;;;;;5.05;0.80;;;;;;;27.50;45.85;101062.53;5196466;28;20036;-74
2022/07/28 10:09:37;;;;;;;3.50;0.80;;;;;;;26.84;47.03;101063.63;5201379;28;21251;-75
2022/07/28 10:12:23;;;;;;;3.00;0.70;;;;;;;27.73;46.76;101063.81;5201195;28;20029;-75
2022/07/28 10:14:54;;;;;;;4.07;0.90;;;;;;;27.04;46.71;101057.19;5197929;28;20021;-74
2022/07/28 10:17:31;;;;;;;4.18;0.98;;;;;;;26.56;47.83;101054.78;5199635;28;20462;-74
2022/07/28 10:20:05;;;;;;;5.45;0.93;;;;;;;25.64;48.56;101059.84;5202063;28;20125;-75
2022/07/28 10:22:37;;;;;;;3.40;0.80;;;;;;;26.15;49.01;101055.94;5201419;28;20398;-74
2022/07/28 10:25:10;;;;;;;3.40;0.80;;;;;;;25.61;49.45;101054.72;5201974;28;20594;-74
2022/07/28 10:27:43;;;;;;;3.45;0.80;;;;;;;24.35;50.94;101049.88;5200703;28;20375;-75
2022/07/28 10:30:14;;;;;;;4.25;0.90;;;;;;;23.97;52.02;101049.59;5201462;28;20025;-74
2022/07/28 10:32:45;;;;;;;4.50;0.90;;;;;;;23.70;53.02;101051.00;5200948;28;20013;-74
2022/07/28 10:35:16;;;;;;;3.25;0.70;;;;;;;23.26;54.15;101048.41;5200254;28;20028;-73
2022/07/28 10:38:04;;;;;;;4.75;1.00;;;;;;;22.98;53.29;101043.56;5196899;28;20009;-74
2022/07/28 10:40:37;;;;;;;5.40;0.82;;;;;;;23.12;53.92;101043.31;5201276;28;20067;-74
2022/07/28 10:43:08;;;;;;;3.70;0.80;;;;;;;23.18;53.58;101040.19;5201081;28;20021;-74
2022/07/28 10:45:39;;;;;;;2.60;0.73;;;;;;;22.88;53.58;101042.59;5200982;28;20029;-74
2022/07/28 10:48:10;;;;;;;5.05;0.80;;;;;;;23.13;52.72;101039.69;5199736;28;20103;-74
2022/07/28 10:50:40;;;;;;;4.20;1.02;;;;;;;23.38;52.87;101040.25;5199472;28;20064;-74
2022/07/28 10:53:19;;;;;;;3.40;0.80;;;;;;;22.43;55.02;101032.00;5200340;28;20036;-74
2022/07/28 10:55:58;;;;;;;3.92;1.10;;;;;;;22.63;54.98;101044.63;5199384;28;20139;-74
2022/07/28 10:58:45;;;;;;;5.68;1.30;;;;;;;22.98;54.21;101027.56;5199766;28;20022;-74
2022/07/28 11:01:38;;;;;;;2.90;0.77;;;;;;;23.19;54.06;101029.38;5200172;28;20021;-74
2022/07/28 11:04:08;;;;;;;3.38;1.00;;;;;;;22.45;54.38;101024.72;5199470;28;20028;-72
2022/07/28 11:06:40;;;;;;;3.42;0.90;;;;;;;22.76;54.07;101031.06;5195015;28;20017;-74
2022/07/28 11:09:16;;;;;;;3.25;0.73;;;;;;;22.68;54.46;101019.31;5200776;28;20025;-74
2022/07/28 11:11:49;;;;;;;5.07;1.08;;;;;;;22.71;55.40;101019.91;5196928;28;20025;-74
2022/07/28 11:14:25;;;;;;;4.82;0.93;;;;;;;22.10;55.31;101019.38;5200721;28;20501;-74
2022/07/28 11:16:58;;;;;;;3.95;0.90;;;;;;;22.57;55.02;101013.13;5199756;28;20033;-74
2022/07/28 11:19:44;;;;;;;5.78;0.98;;;;;;;23.00;54.70;101015.78;5200279;28;20052;-72
2022/07/28 11:22:17;;;;;;;3.83;0.90;;;;;;;23.02;54.18;101011.19;5200920;28;20083;-74
2022/07/28 11:24:57;;;;;;;3.00;0.80;;;;;;;23.52;53.31;101007.97;5197032;28;20152;-74
2022/07/28 11:27:45;;;;;;;3.15;0.95;;;;;;;23.69;54.05;101007.41;5200095;28;20587;-74
2022/07/28 11:30:19;;;;;;;4.40;0.82;;;;;;;23.86;54.27;101004.22;5199928;28;20043;-74
2022/07/28 11:32:50;;;;;;;8.30;1.27;;;;;;;23.67;53.15;101003.19;5199736;28;20044;-74
2022/07/28 11:35:22;;;;;;;5.22;0.95;;;;;;;23.80;52.95;101004.72;5201000;28;20021;-74
2022/07/28 11:38:01;;;;;;;5.65;0.98;;;;;;;23.58;53.36;100995.94;5200314;28;20108;-74
2022/07/28 11:40:32;;;;;;;3.92;0.90;;;;;;;23.54;51.99;100998.00;5200411;28;20037;-73
2022/07/28 11:43:35;;;;;;;5.80;1.10;;;;;;;22.90;54.25;100993.50;5200905;28;20037;-74
2022/07/28 11:46:05;;;;;;;4.20;1.00;;;;;;;22.94;54.00;100991.44;5197242;28;20037;-73
2022/07/28 11:48:37;;;;;;;2.97;0.90;;;;;;;23.41;52.80;100994.66;5200062;28;20160;-74
2022/07/28 11:51:09;;;;;;;3.15;0.85;;;;;;;23.68;52.43;100995.03;5200702;28;20607;-74